createdAt,value
2024-04-24T00:00:24.621Z,8.73
2024-04-24T00:03:13.338Z,9.88
2024-04-24T00:05:41.477Z,9.32
2024-04-24T00:08:10.283Z,10.10
2024-04-24T00:10:39.446Z,10.43
2024-04-24T00:13:08.289Z,10.60
2024-04-24T00:15:36.467Z,9.48
2024-04-24T00:18:05.402Z,8.85
2024-04-24T00:20:33.645Z,10.68
2024-04-24T00:23:03.778Z,8.98
2024-04-24T00:25:32.073Z,9.55
2024-04-24T00:28:00.801Z,7.75
2024-04-24T00:30:28.986Z,8.27
2024-04-24T00:32:58.606Z,13.63
2024-04-24T00:35:26.905Z,8.50
2024-04-24T00:37:55.588Z,9.20
2024-04-24T00:40:23.805Z,11.13
2024-04-24T00:42:52.610Z,7.82
2024-04-24T00:45:20.821Z,11.38
2024-04-24T00:47:51.108Z,8.60
2024-04-24T00:50:20.930Z,9.07
2024-04-24T00:52:49.795Z,7.88
2024-04-24T00:55:18.203Z,8.77
2024-04-24T00:57:46.916Z,8.20
2024-04-24T01:00:15.441Z,9.63
2024-04-24T01:02:44.734Z,11.07
2024-04-24T01:05:13.128Z,8.30
2024-04-24T01:07:42.143Z,9.15
2024-04-24T01:10:20.195Z,8.82
2024-04-24T01:12:51.620Z,11.50
2024-04-24T01:15:20.127Z,11.15
2024-04-24T01:17:53.119Z,11.52
2024-04-24T01:20:25.163Z,15.83
2024-04-24T01:23:26.449Z,8.48
2024-04-24T01:26:29.963Z,10.13
2024-04-24T01:28:58.623Z,9.55
2024-04-24T01:31:26.841Z,8.52
2024-04-24T01:33:55.534Z,8.02
2024-04-24T01:36:23.742Z,13.07
2024-04-24T01:38:52.394Z,10.05
2024-04-24T01:41:20.520Z,9.60
2024-04-24T01:43:49.254Z,9.75
2024-04-24T01:46:17.513Z,8.77
2024-04-24T01:48:46.237Z,9.38
2024-04-24T01:51:14.392Z,10.32
2024-04-24T01:53:42.973Z,10.63
2024-04-24T01:56:14.269Z,13.20
2024-04-24T01:58:42.934Z,10.20
2024-04-24T02:01:11.266Z,9.57
2024-04-24T02:03:39.908Z,10.50
2024-04-24T02:06:08.102Z,10.75
2024-04-24T02:08:37.323Z,11.10
2024-04-24T02:11:05.608Z,12.15
2024-04-24T02:13:34.415Z,10.50
2024-04-24T02:16:02.618Z,8.75
2024-04-24T02:18:31.379Z,11.40
2024-04-24T02:20:59.591Z,14.25
2024-04-24T02:23:32.773Z,10.60
2024-04-24T02:26:01.055Z,12.67
2024-04-24T02:28:29.682Z,10.55
2024-04-24T02:30:57.895Z,13.07
2024-04-24T02:33:26.637Z,9.38
2024-04-24T02:35:54.863Z,13.10
2024-04-24T02:38:23.664Z,9.65
2024-04-24T02:40:52.304Z,13.93
2024-04-24T02:43:21.285Z,10.95
2024-04-24T02:45:49.473Z,12.50
2024-04-24T02:48:18.283Z,10.55
2024-04-24T02:50:46.521Z,10.70
2024-04-24T02:53:15.254Z,11.30
2024-04-24T02:55:43.496Z,13.40
2024-04-24T02:58:12.217Z,10.98
2024-04-24T03:00:40.394Z,13.70
2024-04-24T03:03:09.303Z,13.25
2024-04-24T03:05:37.589Z,14.80
2024-04-24T03:08:06.306Z,11.02
2024-04-24T03:10:34.482Z,12.75
2024-04-24T03:13:03.062Z,12.75
2024-04-24T03:15:31.195Z,14.60
2024-04-24T03:17:59.868Z,12.57
2024-04-24T03:20:28.192Z,12.18
2024-04-24T03:22:56.825Z,12.13
2024-04-24T03:25:25.052Z,11.52
2024-04-24T03:27:53.663Z,14.48
2024-04-24T03:30:21.916Z,13.05
2024-04-24T03:32:50.766Z,14.93
2024-04-24T03:35:19.047Z,13.20
2024-04-24T03:37:47.758Z,14.00
2024-04-24T03:40:15.882Z,14.07
2024-04-24T03:42:45.778Z,15.90
2024-04-24T03:45:14.031Z,16.70
2024-04-24T03:47:43.115Z,18.98
2024-04-24T03:50:11.507Z,14.55
2024-04-24T03:52:40.143Z,17.95
2024-04-24T03:55:08.369Z,17.88
2024-04-24T03:57:36.952Z,17.65
2024-04-24T04:00:05.561Z,23.90
2024-04-24T04:02:40.612Z,17.55
2024-04-24T04:05:08.899Z,20.40
2024-04-24T04:07:37.604Z,18.45
2024-04-24T04:10:06.029Z,22.75
2024-04-24T04:12:36.945Z,17.27
2024-04-24T04:15:05.531Z,19.13
2024-04-24T04:17:34.187Z,19.05
2024-04-24T04:20:02.862Z,22.05
2024-04-24T04:22:31.478Z,25.05
2024-04-24T04:24:59.718Z,19.83
2024-04-24T04:27:28.605Z,23.75
2024-04-24T04:29:57.013Z,21.02
2024-04-24T04:32:26.148Z,20.23
2024-04-24T04:34:54.541Z,25.65
2024-04-24T04:37:23.243Z,24.15
2024-04-24T04:39:51.568Z,20.00
2024-04-24T04:42:20.313Z,24.92
2024-04-24T04:44:48.441Z,21.63
2024-04-24T04:47:17.143Z,20.67
2024-04-24T04:49:45.302Z,21.17
2024-04-24T04:52:13.921Z,26.75
2024-04-24T04:54:42.172Z,21.55
2024-04-24T04:57:10.946Z,27.40
2024-04-24T04:59:39.153Z,17.58
2024-04-24T05:02:07.861Z,18.70
2024-04-24T05:04:36.210Z,20.80
2024-04-24T05:07:04.816Z,22.50
2024-04-24T05:09:33.837Z,18.63
2024-04-24T05:12:02.745Z,21.70
2024-04-24T05:14:31.009Z,17.25
2024-04-24T05:16:59.907Z,18.85
2024-04-24T05:19:28.190Z,18.23
2024-04-24T05:21:56.707Z,17.63
2024-04-24T05:24:24.855Z,16.17
2024-04-24T05:27:12.214Z,20.10
2024-04-24T05:29:40.390Z,19.50
2024-04-24T05:32:08.902Z,16.13
2024-04-24T05:34:37.022Z,18.23
2024-04-24T05:37:05.608Z,20.55
2024-04-24T05:39:33.655Z,26.67
2024-04-24T05:42:02.212Z,16.17
2024-04-24T05:44:35.114Z,19.10
2024-04-24T05:47:05.346Z,19.98
2024-04-24T05:49:33.702Z,16.17
2024-04-24T05:52:02.223Z,25.58
2024-04-24T05:54:30.458Z,21.75
2024-04-24T05:56:59.013Z,19.95
2024-04-24T05:59:27.321Z,20.38
2024-04-24T06:01:55.851Z,21.25
2024-04-24T06:04:24.068Z,26.45
2024-04-24T06:06:55.376Z,21.73
2024-04-24T06:09:24.529Z,22.20
2024-04-24T06:11:53.130Z,23.15
2024-04-24T06:14:21.389Z,22.95
2024-04-24T06:16:50.020Z,20.35
2024-04-24T06:19:18.215Z,29.80
2024-04-24T06:21:46.861Z,25.80
2024-04-24T06:24:15.867Z,23.33
2024-04-24T06:26:46.223Z,19.80
2024-04-24T06:29:14.760Z,20.35
2024-04-24T06:31:43.693Z,20.15
2024-04-24T06:34:12.068Z,20.40
2024-04-24T06:36:40.663Z,25.23
2024-04-24T06:39:08.925Z,23.58
2024-04-24T06:41:37.592Z,23.85
2024-04-24T06:44:05.888Z,26.48
2024-04-24T06:46:34.580Z,29.25
2024-04-24T06:49:02.713Z,22.80
2024-04-24T06:51:31.319Z,18.63
2024-04-24T06:53:59.508Z,24.80
2024-04-24T06:56:28.064Z,32.58
2024-04-24T06:58:57.630Z,21.17
2024-04-24T07:01:26.483Z,26.23
2024-04-24T07:03:54.947Z,24.38
2024-04-24T07:06:23.585Z,24.02
2024-04-24T07:08:51.642Z,23.00
2024-04-24T07:11:20.380Z,21.63
2024-04-24T07:13:48.551Z,25.35
2024-04-24T07:16:18.825Z,21.45
2024-04-24T07:18:46.990Z,22.67
2024-04-24T07:21:15.654Z,29.67
2024-04-24T07:23:43.838Z,25.08
2024-04-24T07:26:12.516Z,29.45
2024-04-24T07:28:41.319Z,23.45
2024-04-24T07:31:10.121Z,23.83
2024-04-24T07:33:38.395Z,23.27
2024-04-24T07:36:08.491Z,21.85
2024-04-24T07:38:37.110Z,30.67
2024-04-24T07:41:07.594Z,25.08
2024-04-24T07:43:36.413Z,25.17
2024-04-24T07:46:07.166Z,20.15
2024-04-24T07:48:35.533Z,27.60
2024-04-24T07:51:05.938Z,24.70
2024-04-24T07:53:36.179Z,23.05
2024-04-24T07:56:05.749Z,24.08
2024-04-24T07:58:34.755Z,22.42
2024-04-24T08:01:03.571Z,23.60
2024-04-24T08:03:33.119Z,23.55
2024-04-24T08:06:01.984Z,22.60
2024-04-24T08:08:30.107Z,22.75
2024-04-24T08:10:58.642Z,24.52
2024-04-24T08:13:26.842Z,26.73
2024-04-24T08:15:55.379Z,22.30
2024-04-24T08:18:23.763Z,21.83
2024-04-24T08:20:52.263Z,23.27
2024-04-24T08:23:25.813Z,18.80
2024-04-24T08:25:55.976Z,19.05
2024-04-24T08:28:33.262Z,23.35
2024-04-24T08:31:10.189Z,24.55
2024-04-24T08:33:38.614Z,23.20
2024-04-24T08:36:13.263Z,30.15
2024-04-24T08:38:41.630Z,21.60
2024-04-24T08:41:11.519Z,24.60
2024-04-24T08:43:45.634Z,23.77
2024-04-24T08:46:14.524Z,23.23
2024-04-24T08:48:43.967Z,16.38
2024-04-24T08:51:14.418Z,24.65
2024-04-24T08:53:54.726Z,21.42
2024-04-24T08:56:30.344Z,17.92
2024-04-24T08:59:04.307Z,21.88
2024-04-24T09:01:38.352Z,22.60
2024-04-24T09:04:09.868Z,22.90
2024-04-24T09:06:41.222Z,17.85
2024-04-24T09:09:09.532Z,25.52
2024-04-24T09:11:38.570Z,21.88
2024-04-24T09:14:07.836Z,27.42
2024-04-24T09:16:37.872Z,24.15
2024-04-24T09:19:06.326Z,25.95
2024-04-24T09:21:35.126Z,20.48
2024-04-24T09:24:03.418Z,31.52
2024-04-24T09:26:32.618Z,21.80
2024-04-24T09:29:00.810Z,22.33
2024-04-24T09:31:29.380Z,23.92
2024-04-24T09:33:57.660Z,24.60
2024-04-24T09:36:30.622Z,28.30
2024-04-24T09:38:59.272Z,25.88
2024-04-24T09:41:28.053Z,22.08
2024-04-24T09:43:56.203Z,27.30
2024-04-24T09:46:24.806Z,19.65
2024-04-24T09:48:53.783Z,26.15
2024-04-24T09:51:22.399Z,26.20
2024-04-24T09:53:50.521Z,25.77
2024-04-24T09:56:23.694Z,22.45
2024-04-24T09:58:55.135Z,24.27
2024-04-24T10:01:24.764Z,19.98
2024-04-24T10:03:56.093Z,20.27
2024-04-24T10:06:26.882Z,20.33
2024-04-24T10:08:57.500Z,22.25
2024-04-24T10:11:31.243Z,16.25
2024-04-24T10:14:00.434Z,21.27
2024-04-24T10:16:31.733Z,19.23
2024-04-24T10:19:02.836Z,21.60
2024-04-24T10:21:32.850Z,16.13
2024-04-24T10:24:03.135Z,18.45
2024-04-24T10:26:32.990Z,17.63
2024-04-24T10:29:02.898Z,15.25
2024-04-24T10:31:31.413Z,15.40
2024-04-24T10:34:01.380Z,23.55
2024-04-24T10:36:30.183Z,19.83
2024-04-24T10:38:58.396Z,14.50
2024-04-24T10:41:28.127Z,17.90
2024-04-24T10:43:56.959Z,19.08
2024-04-24T10:46:26.800Z,19.23
2024-04-24T10:49:00.649Z,17.08
2024-04-24T10:51:29.673Z,19.90
2024-04-24T10:54:00.686Z,18.90
2024-04-24T10:56:37.608Z,18.02
2024-04-24T10:59:08.660Z,15.60
2024-04-24T11:01:47.415Z,16.13
2024-04-24T11:04:26.399Z,17.88
2024-04-24T11:09:24.872Z,14.40
2024-04-24T11:11:55.430Z,18.17
2024-04-24T11:14:23.785Z,15.05
2024-04-24T11:16:57.057Z,12.93
2024-04-24T11:19:25.798Z,14.98
2024-04-24T11:21:54.426Z,13.82
2024-04-24T11:24:32.888Z,16.58
2024-04-24T11:27:02.212Z,17.45
2024-04-24T11:29:40.498Z,16.70
2024-04-24T11:32:11.506Z,13.80
2024-04-24T11:34:41.123Z,18.67
2024-04-24T11:37:10.144Z,13.48
2024-04-24T11:39:38.479Z,16.40
2024-04-24T11:42:07.862Z,15.27
2024-04-24T11:44:37.144Z,14.73
2024-04-24T11:47:06.014Z,17.55
2024-04-24T11:49:34.831Z,13.25
2024-04-24T11:52:07.176Z,14.77
2024-04-24T11:54:35.396Z,14.88
2024-04-24T11:57:04.347Z,19.05
2024-04-24T11:59:32.653Z,14.43
2024-04-24T12:02:01.262Z,13.48
2024-04-24T12:04:29.502Z,10.05
2024-04-24T12:06:57.994Z,9.65
2024-04-24T12:09:26.235Z,16.15
2024-04-24T12:11:54.824Z,11.48
2024-04-24T12:14:24.216Z,11.75
2024-04-24T12:16:54.384Z,9.68
2024-04-24T12:19:22.452Z,10.13
2024-04-24T12:21:50.967Z,10.25
2024-04-24T12:24:19.175Z,11.88
2024-04-24T12:26:47.822Z,11.63
2024-04-24T12:29:16.166Z,13.27
2024-04-24T12:31:46.643Z,12.13
2024-04-24T12:34:15.014Z,7.15
2024-04-24T12:36:43.674Z,12.95
2024-04-24T12:39:11.807Z,10.18
2024-04-24T12:41:40.600Z,8.10
2024-04-24T12:44:08.814Z,8.70
2024-04-24T12:46:37.407Z,8.13
2024-04-24T12:49:05.662Z,8.90
2024-04-24T12:51:34.735Z,8.85
2024-04-24T12:54:02.986Z,9.88
2024-04-24T12:56:31.664Z,16.63
2024-04-24T12:58:59.889Z,10.50
2024-04-24T13:01:29.684Z,8.02
2024-04-24T13:03:57.987Z,8.55
2024-04-24T13:06:26.537Z,9.50
2024-04-24T13:08:57.051Z,7.65
2024-04-24T13:11:27.530Z,10.27
2024-04-24T13:13:55.682Z,13.38
2024-04-24T13:16:24.762Z,9.90
2024-04-24T13:18:53.412Z,12.15
2024-04-24T13:21:23.455Z,8.57
2024-04-24T13:23:51.944Z,8.55
2024-04-24T13:26:20.466Z,10.73
2024-04-24T13:28:48.621Z,9.63
2024-04-24T13:31:17.287Z,7.63
2024-04-24T13:33:45.588Z,11.85
2024-04-24T13:36:14.517Z,10.02
2024-04-24T13:38:43.697Z,9.00
2024-04-24T13:41:13.074Z,10.90
2024-04-24T13:43:41.078Z,7.30
2024-04-24T13:46:09.582Z,9.35
2024-04-24T13:48:40.646Z,10.05
2024-04-24T13:51:09.599Z,8.07
2024-04-24T13:53:37.776Z,10.18
2024-04-24T13:56:06.505Z,13.98
2024-04-24T13:58:34.908Z,8.40
2024-04-24T14:01:03.618Z,9.15
2024-04-24T14:03:31.956Z,7.63
2024-04-24T14:06:01.507Z,10.15
2024-04-24T14:08:29.714Z,8.73
2024-04-24T14:10:59.153Z,12.57
2024-04-24T14:13:27.397Z,13.07
2024-04-24T14:15:55.928Z,10.43
2024-04-24T14:18:24.081Z,8.95
2024-04-24T14:20:52.623Z,7.82
2024-04-24T14:23:20.707Z,10.45
2024-04-24T14:25:49.297Z,8.80
2024-04-24T14:28:18.761Z,7.53
2024-04-24T14:30:47.310Z,9.77
2024-04-24T14:33:15.419Z,11.70
2024-04-24T14:35:44.013Z,12.23
2024-04-24T14:38:12.167Z,9.80
2024-04-24T14:40:40.730Z,13.60
2024-04-24T14:43:08.923Z,10.38
2024-04-24T14:45:37.585Z,12.85
2024-04-24T14:48:06.398Z,13.18
2024-04-24T14:50:35.131Z,13.40
2024-04-24T14:53:03.739Z,14.43
2024-04-24T14:55:33.513Z,15.75
2024-04-24T14:58:01.692Z,15.70
2024-04-24T15:00:30.204Z,13.30
2024-04-24T15:02:58.389Z,18.40
2024-04-24T15:05:27.263Z,110.70
2024-04-24T15:07:55.376Z,385.83
2024-04-24T15:10:23.862Z,212.57
2024-04-24T15:12:52.059Z,58.08
2024-04-24T15:15:20.619Z,22.13
2024-04-24T15:17:49.145Z,11.18
2024-04-24T15:20:17.841Z,10.15
2024-04-24T15:22:46.228Z,16.65
2024-04-24T15:25:15.765Z,7.03
2024-04-24T15:27:43.970Z,6.97
2024-04-24T15:30:17.631Z,7.97
2024-04-24T15:32:45.881Z,9.82
2024-04-24T15:35:14.592Z,10.32
2024-04-24T15:37:42.905Z,8.57
2024-04-24T15:40:11.731Z,7.78
2024-04-24T15:42:40.582Z,11.95
2024-04-24T15:45:10.581Z,9.85
2024-04-24T15:47:38.949Z,9.73
2024-04-24T15:50:07.943Z,9.18
2024-04-24T15:52:36.042Z,8.85
2024-04-24T15:55:04.852Z,9.63
2024-04-24T15:57:33.077Z,10.82
2024-04-24T16:00:03.896Z,7.88
2024-04-24T16:02:40.762Z,5.55
2024-04-24T16:05:09.474Z,6.88
2024-04-24T16:07:37.699Z,4.53
2024-04-24T16:10:06.684Z,6.53
2024-04-24T16:12:34.986Z,8.18
2024-04-24T16:15:03.712Z,4.82
2024-04-24T16:17:31.959Z,5.50
2024-04-24T16:20:00.720Z,5.78
2024-04-24T16:22:28.882Z,6.15
2024-04-24T16:24:57.402Z,6.45
2024-04-24T16:27:25.561Z,7.00
2024-04-24T16:29:54.086Z,8.98
2024-04-24T16:32:22.680Z,8.65
2024-04-24T16:34:51.671Z,10.70
2024-04-24T16:37:19.870Z,13.32
2024-04-24T16:39:49.021Z,9.13
2024-04-24T16:42:17.102Z,8.40
2024-04-24T16:44:45.659Z,8.38
2024-04-24T16:47:14.466Z,11.88
2024-04-24T16:49:43.131Z,35.03
2024-04-24T16:52:13.982Z,38.70
2024-04-24T16:54:42.479Z,26.23
2024-04-24T16:57:10.639Z,13.45
2024-04-24T16:59:39.312Z,12.88
2024-04-24T17:02:08.351Z,9.82
2024-04-24T17:04:37.464Z,8.65
2024-04-24T17:07:05.792Z,17.00
2024-04-24T17:09:34.201Z,34.28
2024-04-24T17:12:03.930Z,36.83
2024-04-24T17:14:32.475Z,17.25
2024-04-24T17:17:00.684Z,10.88
2024-04-24T17:19:29.686Z,16.38
2024-04-24T17:21:57.930Z,40.50
2024-04-24T17:24:26.356Z,34.58
2024-04-24T17:26:55.942Z,35.83
2024-04-24T17:29:24.625Z,32.92
2024-04-24T17:31:52.771Z,16.48
2024-04-24T17:34:24.525Z,22.83
2024-04-24T17:36:52.631Z,21.52
2024-04-24T17:39:21.107Z,25.08
2024-04-24T17:41:50.439Z,20.60
2024-04-24T17:44:19.181Z,22.90
2024-04-24T17:46:48.689Z,22.17
2024-04-24T17:49:17.175Z,29.15
2024-04-24T17:51:45.232Z,32.92
2024-04-24T17:54:13.727Z,24.88
2024-04-24T17:56:41.761Z,22.13
2024-04-24T17:59:10.264Z,15.77
2024-04-24T18:01:38.461Z,13.50
2024-04-24T18:04:07.033Z,8.35
2024-04-24T18:06:35.296Z,10.95
2024-04-24T18:09:03.824Z,13.10
2024-04-24T18:11:32.021Z,13.43
2024-04-24T18:14:00.649Z,15.05
2024-04-24T18:16:28.783Z,24.00
2024-04-24T18:18:57.251Z,12.68
2024-04-24T18:21:26.008Z,7.43
2024-04-24T18:23:54.562Z,8.13
2024-04-24T18:26:22.712Z,9.07
2024-04-24T18:28:51.252Z,23.73
2024-04-24T18:31:19.476Z,6.93
2024-04-24T18:33:48.159Z,5.40
2024-04-24T18:36:16.399Z,7.90
2024-04-24T18:38:45.157Z,3.70
2024-04-24T18:41:13.860Z,3.35
2024-04-24T18:43:43.274Z,4.57
2024-04-24T18:46:13.155Z,5.03
2024-04-24T18:48:41.843Z,9.18
2024-04-24T18:51:11.110Z,4.80
2024-04-24T18:53:39.652Z,3.90
2024-04-24T18:56:09.002Z,3.78
2024-04-24T18:58:37.574Z,10.57
2024-04-24T19:01:06.003Z,3.45
2024-04-24T19:03:34.642Z,4.03
2024-04-24T19:06:02.874Z,5.57
2024-04-24T19:08:31.529Z,5.80
2024-04-24T19:11:00.768Z,6.50
2024-04-24T19:13:29.384Z,4.40
2024-04-24T19:15:57.704Z,4.93
2024-04-24T19:18:26.400Z,5.43
2024-04-24T19:20:54.704Z,4.72
2024-04-24T19:23:23.258Z,6.78
2024-04-24T19:25:52.899Z,11.20
2024-04-24T19:28:23.534Z,6.85
2024-04-24T19:30:51.769Z,5.07
2024-04-24T19:33:20.487Z,7.30
2024-04-24T19:35:51.746Z,5.10
2024-04-24T19:38:22.853Z,5.85
2024-04-24T19:40:50.959Z,6.18
2024-04-24T19:43:19.568Z,5.80
2024-04-24T19:45:47.724Z,7.18
2024-04-24T19:48:16.788Z,5.70
2024-04-24T19:50:45.025Z,8.50
2024-04-24T19:53:14.505Z,5.57
2024-04-24T19:55:42.684Z,6.35
2024-04-24T19:58:11.193Z,5.07
2024-04-24T20:00:39.403Z,4.97
2024-04-24T20:03:08.230Z,7.25
2024-04-24T20:05:36.524Z,8.75
2024-04-24T20:08:05.598Z,4.85
2024-04-24T20:10:33.877Z,5.55
2024-04-24T20:13:02.471Z,5.78
2024-04-24T20:15:30.774Z,3.97
2024-04-24T20:17:59.782Z,5.95
2024-04-24T20:20:28.094Z,5.03
2024-04-24T20:22:57.024Z,6.15
2024-04-24T20:25:26.383Z,6.40
2024-04-24T20:27:55.113Z,7.25
2024-04-24T20:30:23.338Z,8.55
2024-04-24T20:32:54.408Z,11.55
2024-04-24T20:35:22.814Z,6.15
2024-04-24T20:37:51.641Z,9.90
2024-04-24T20:40:19.929Z,7.47
2024-04-24T20:42:50.249Z,7.75
2024-04-24T20:45:19.374Z,11.57
2024-04-24T20:47:48.134Z,10.20
2024-04-24T20:50:18.784Z,15.27
2024-04-24T20:52:47.415Z,4.22
2024-04-24T20:55:15.690Z,3.03
2024-04-24T20:57:44.339Z,3.70
2024-04-24T21:00:13.203Z,3.83
2024-04-24T21:02:42.067Z,3.50
2024-04-24T21:05:10.302Z,2.13
2024-04-24T21:07:39.153Z,0.85
2024-04-24T21:10:07.914Z,1.10
2024-04-24T21:12:36.516Z,11.63
2024-04-24T21:15:05.122Z,0.75
2024-04-24T21:17:33.817Z,0.70
2024-04-24T21:20:02.306Z,1.08
2024-04-24T21:22:31.086Z,1.77
2024-04-24T21:24:59.287Z,1.05
2024-04-24T21:27:28.390Z,0.65
2024-04-24T21:29:56.758Z,2.08
2024-04-24T21:32:25.789Z,1.20
2024-04-24T21:34:54.059Z,1.20
2024-04-24T21:37:22.718Z,0.90
2024-04-24T21:39:51.984Z,0.75
2024-04-24T21:42:20.528Z,1.33
2024-04-24T21:44:48.785Z,1.00
2024-04-24T21:47:17.842Z,4.10
2024-04-24T21:49:46.098Z,2.42
2024-04-24T21:52:14.812Z,1.17
2024-04-24T21:54:43.027Z,0.90
2024-04-24T21:57:11.629Z,0.93
2024-04-24T21:59:39.879Z,2.95
2024-04-24T22:02:08.743Z,1.08
2024-04-24T22:04:39.343Z,1.95
2024-04-24T22:07:07.974Z,0.98
2024-04-24T22:09:36.104Z,1.20
2024-04-24T22:12:05.191Z,1.80
2024-04-24T22:14:33.587Z,0.90
2024-04-24T22:17:03.789Z,2.05
2024-04-24T22:19:35.046Z,0.93
2024-04-24T22:22:04.445Z,0.88
2024-04-24T22:24:32.542Z,1.45
2024-04-24T22:27:01.181Z,2.83
2024-04-24T22:29:29.385Z,1.27
2024-04-24T22:31:58.207Z,1.00
2024-04-24T22:34:26.366Z,1.35
2024-04-24T22:36:55.028Z,1.70
2024-04-24T22:39:23.318Z,2.40
2024-04-24T22:41:51.899Z,2.33
2024-04-24T22:44:20.018Z,2.78
2024-04-24T22:46:48.795Z,2.22
2024-04-24T22:49:16.910Z,2.13
2024-04-24T22:51:46.105Z,1.20
2024-04-24T22:54:14.306Z,1.00
2024-04-24T22:56:43.515Z,1.35
2024-04-24T22:59:11.819Z,1.25
2024-04-24T23:01:40.527Z,1.73
2024-04-24T23:04:09.783Z,1.40
2024-04-24T23:06:38.498Z,3.97
2024-04-24T23:09:07.247Z,1.23
2024-04-24T23:11:35.927Z,1.27
2024-04-24T23:14:04.199Z,2.10
2024-04-24T23:16:32.972Z,1.05
2024-04-24T23:19:01.223Z,1.27
2024-04-24T23:21:29.849Z,0.90
2024-04-24T23:23:57.976Z,1.13
2024-04-24T23:26:26.901Z,0.93
2024-04-24T23:28:55.025Z,2.03
2024-04-24T23:31:23.567Z,1.73
2024-04-24T23:33:51.715Z,2.22
2024-04-24T23:36:20.294Z,2.63
2024-04-24T23:38:48.426Z,1.23
2024-04-24T23:41:18.039Z,1.40
2024-04-24T23:43:46.264Z,1.00
2024-04-24T23:46:15.225Z,1.73
2024-04-24T23:48:43.797Z,1.50
2024-04-24T23:51:12.425Z,3.60
2024-04-24T23:53:40.548Z,1.23
2024-04-24T23:56:09.187Z,1.70
2024-04-24T23:58:37.258Z,2.05
